sensor_id;sensor_type;location;lat;lon;timestamp;P1;durP1;ratioP1;P2;durP2;ratioP2
20443;SDS011;10381;53.730;10.010;2022-12-18T00:03:41;149.75;;;134.35;;
20443;SDS011;10381;53.730;10.010;2022-12-18T00:07:41;151.67;;;136.37;;
20443;SDS011;10381;53.730;10.010;2022-12-18T00:11:42;149.03;;;133.27;;
20443;SDS011;10381;53.730;10.010;2022-12-18T00:15:43;146.27;;;131.27;;
20443;SDS011;10381;53.730;10.010;2022-12-18T00:19:43;149.37;;;134.23;;
20443;SDS011;10381;53.730;10.010;2022-12-18T00:23:43;152.35;;;137.07;;
20443;SDS011;10381;53.730;10.010;2022-12-18T00:27:44;153.43;;;137.07;;
20443;SDS011;10381;53.730;10.010;2022-12-18T00:31:45;152.63;;;136.35;;
20443;SDS011;10381;53.730;10.010;2022-12-18T00:35:45;149.55;;;134.45;;
20443;SDS011;10381;53.730;10.010;2022-12-18T00:39:47;148.47;;;133.37;;
20443;SDS011;10381;53.730;10.010;2022-12-18T00:43:48;148.48;;;133.73;;
20443;SDS011;10381;53.730;10.010;2022-12-18T00:47:48;156.27;;;140.30;;
20443;SDS011;10381;53.730;10.010;2022-12-18T00:51:48;153.77;;;137.85;;
20443;SDS011;10381;53.730;10.010;2022-12-18T00:55:49;148.13;;;132.68;;
20443;SDS011;10381;53.730;10.010;2022-12-18T00:59:49;143.53;;;128.70;;
20443;SDS011;10381;53.730;10.010;2022-12-18T01:03:49;147.25;;;132.70;;
20443;SDS011;10381;53.730;10.010;2022-12-18T01:07:50;152.00;;;136.45;;
20443;SDS011;10381;53.730;10.010;2022-12-18T01:11:50;153.52;;;138.23;;
20443;SDS011;10381;53.730;10.010;2022-12-18T01:15:51;154.00;;;138.63;;
20443;SDS011;10381;53.730;10.010;2022-12-18T01:19:51;156.38;;;140.77;;
20443;SDS011;10381;53.730;10.010;2022-12-18T01:23:53;159.80;;;143.32;;
20443;SDS011;10381;53.730;10.010;2022-12-18T01:27:54;155.98;;;139.65;;
20443;SDS011;10381;53.730;10.010;2022-12-18T01:31:55;147.00;;;131.87;;
20443;SDS011;10381;53.730;10.010;2022-12-18T01:35:56;150.35;;;135.45;;
20443;SDS011;10381;53.730;10.010;2022-12-18T01:39:56;148.57;;;133.10;;
20443;SDS011;10381;53.730;10.010;2022-12-18T01:43:57;149.88;;;134.25;;
20443;SDS011;10381;53.730;10.010;2022-12-18T01:47:59;149.57;;;134.25;;
20443;SDS011;10381;53.730;10.010;2022-12-18T01:52:01;151.48;;;135.50;;
20443;SDS011;10381;53.730;10.010;2022-12-18T01:56:02;148.82;;;133.80;;
20443;SDS011;10381;53.730;10.010;2022-12-18T02:00:07;148.65;;;133.45;;
20443;SDS011;10381;53.730;10.010;2022-12-18T02:04:24;148.50;;;132.50;;
20443;SDS011;10381;53.730;10.010;2022-12-18T02:08:32;152.23;;;136.68;;
20443;SDS011;10381;53.730;10.010;2022-12-18T02:12:45;151.00;;;135.77;;
20443;SDS011;10381;53.730;10.010;2022-12-18T02:16:55;145.02;;;129.82;;
20443;SDS011;10381;53.730;10.010;2022-12-18T02:21:20;145.05;;;130.57;;
20443;SDS011;10381;53.730;10.010;2022-12-18T02:25:40;154.30;;;138.63;;
20443;SDS011;10381;53.730;10.010;2022-12-18T02:30:19;151.25;;;136.35;;
20443;SDS011;10381;53.730;10.010;2022-12-18T02:34:22;146.13;;;131.27;;
20443;SDS011;10381;53.730;10.010;2022-12-18T02:38:26;145.98;;;131.95;;
20443;SDS011;10381;53.730;10.010;2022-12-18T02:42:29;153.38;;;138.18;;
20443;SDS011;10381;53.730;10.010;2022-12-18T02:50:38;149.88;;;133.90;;
20443;SDS011;10381;53.730;10.010;2022-12-18T02:59:13;152.63;;;137.38;;
20443;SDS011;10381;53.730;10.010;2022-12-18T03:03:21;154.52;;;139.48;;
20443;SDS011;10381;53.730;10.010;2022-12-18T03:07:40;156.93;;;141.25;;
20443;SDS011;10381;53.730;10.010;2022-12-18T03:11:47;149.00;;;134.50;;
20443;SDS011;10381;53.730;10.010;2022-12-18T03:16:24;156.55;;;141.13;;
20443;SDS011;10381;53.730;10.010;2022-12-18T03:20:27;148.68;;;134.38;;
20443;SDS011;10381;53.730;10.010;2022-12-18T03:24:31;152.77;;;138.55;;
20443;SDS011;10381;53.730;10.010;2022-12-18T03:28:35;155.68;;;141.13;;
20443;SDS011;10381;53.730;10.010;2022-12-18T03:32:44;147.75;;;133.25;;
20443;SDS011;10381;53.730;10.010;2022-12-18T03:36:56;161.32;;;144.77;;
20443;SDS011;10381;53.730;10.010;2022-12-18T03:45:15;157.85;;;142.70;;
20443;SDS011;10381;53.730;10.010;2022-12-18T03:49:45;150.13;;;135.27;;
20443;SDS011;10381;53.730;10.010;2022-12-18T03:57:58;147.80;;;133.55;;
20443;SDS011;10381;53.730;10.010;2022-12-18T04:02:01;138.55;;;125.45;;
20443;SDS011;10381;53.730;10.010;2022-12-18T04:06:05;141.98;;;128.25;;
20443;SDS011;10381;53.730;10.010;2022-12-18T04:10:07;136.30;;;123.07;;
20443;SDS011;10381;53.730;10.010;2022-12-18T04:14:12;138.32;;;124.50;;
20443;SDS011;10381;53.730;10.010;2022-12-18T04:18:13;141.38;;;127.07;;
20443;SDS011;10381;53.730;10.010;2022-12-18T04:22:13;132.13;;;119.60;;
20443;SDS011;10381;53.730;10.010;2022-12-18T04:26:13;136.55;;;123.95;;
20443;SDS011;10381;53.730;10.010;2022-12-18T04:30:14;134.47;;;121.53;;
20443;SDS011;10381;53.730;10.010;2022-12-18T04:34:14;132.02;;;118.75;;
20443;SDS011;10381;53.730;10.010;2022-12-18T04:38:14;133.48;;;121.03;;
20443;SDS011;10381;53.730;10.010;2022-12-18T04:42:15;133.55;;;120.32;;
20443;SDS011;10381;53.730;10.010;2022-12-18T04:46:15;133.60;;;118.67;;
20443;SDS011;10381;53.730;10.010;2022-12-18T04:50:15;131.77;;;119.53;;
20443;SDS011;10381;53.730;10.010;2022-12-18T04:54:19;132.65;;;119.95;;
20443;SDS011;10381;53.730;10.010;2022-12-18T04:58:19;132.00;;;119.43;;
20443;SDS011;10381;53.730;10.010;2022-12-18T05:02:19;126.87;;;114.47;;
20443;SDS011;10381;53.730;10.010;2022-12-18T05:06:19;134.13;;;121.20;;
20443;SDS011;10381;53.730;10.010;2022-12-18T05:10:20;134.33;;;121.90;;
20443;SDS011;10381;53.730;10.010;2022-12-18T05:14:20;133.57;;;121.03;;
20443;SDS011;10381;53.730;10.010;2022-12-18T05:18:21;124.90;;;112.65;;
20443;SDS011;10381;53.730;10.010;2022-12-18T05:22:21;126.22;;;114.03;;
20443;SDS011;10381;53.730;10.010;2022-12-18T05:26:22;129.10;;;116.95;;
20443;SDS011;10381;53.730;10.010;2022-12-18T05:30:22;125.67;;;113.90;;
20443;SDS011;10381;53.730;10.010;2022-12-18T05:34:22;123.28;;;111.47;;
20443;SDS011;10381;53.730;10.010;2022-12-18T05:38:24;119.20;;;107.93;;
20443;SDS011;10381;53.730;10.010;2022-12-18T05:42:26;117.53;;;106.30;;
20443;SDS011;10381;53.730;10.010;2022-12-18T05:46:26;125.50;;;113.50;;
20443;SDS011;10381;53.730;10.010;2022-12-18T05:50:27;126.87;;;114.60;;
20443;SDS011;10381;53.730;10.010;2022-12-18T05:54:27;123.18;;;111.38;;
20443;SDS011;10381;53.730;10.010;2022-12-18T05:58:28;125.43;;;113.63;;
20443;SDS011;10381;53.730;10.010;2022-12-18T06:02:28;126.55;;;114.45;;
20443;SDS011;10381;53.730;10.010;2022-12-18T06:06:29;124.47;;;112.53;;
20443;SDS011;10381;53.730;10.010;2022-12-18T06:10:29;127.40;;;115.50;;
20443;SDS011;10381;53.730;10.010;2022-12-18T06:14:29;126.38;;;113.63;;
20443;SDS011;10381;53.730;10.010;2022-12-18T06:18:29;125.43;;;112.37;;
20443;SDS011;10381;53.730;10.010;2022-12-18T06:22:30;133.98;;;121.07;;
20443;SDS011;10381;53.730;10.010;2022-12-18T06:26:32;123.50;;;112.03;;
20443;SDS011;10381;53.730;10.010;2022-12-18T06:30:32;128.68;;;116.13;;
20443;SDS011;10381;53.730;10.010;2022-12-18T06:34:32;120.55;;;109.60;;
20443;SDS011;10381;53.730;10.010;2022-12-18T06:38:33;127.53;;;115.13;;
20443;SDS011;10381;53.730;10.010;2022-12-18T06:42:35;123.00;;;110.60;;
20443;SDS011;10381;53.730;10.010;2022-12-18T06:46:35;126.90;;;114.87;;
20443;SDS011;10381;53.730;10.010;2022-12-18T06:50:35;124.20;;;112.53;;
20443;SDS011;10381;53.730;10.010;2022-12-18T06:54:36;124.13;;;112.63;;
20443;SDS011;10381;53.730;10.010;2022-12-18T06:58:37;129.07;;;116.60;;
20443;SDS011;10381;53.730;10.010;2022-12-18T07:02:38;123.72;;;111.85;;
20443;SDS011;10381;53.730;10.010;2022-12-18T07:06:38;131.00;;;117.03;;
20443;SDS011;10381;53.730;10.010;2022-12-18T07:10:42;121.80;;;109.85;;
20443;SDS011;10381;53.730;10.010;2022-12-18T07:14:43;120.30;;;108.88;;
20443;SDS011;10381;53.730;10.010;2022-12-18T07:18:43;124.80;;;112.80;;
20443;SDS011;10381;53.730;10.010;2022-12-18T07:22:44;126.07;;;114.20;;
20443;SDS011;10381;53.730;10.010;2022-12-18T07:26:47;119.97;;;108.30;;
20443;SDS011;10381;53.730;10.010;2022-12-18T07:30:47;121.10;;;109.80;;
20443;SDS011;10381;53.730;10.010;2022-12-18T07:34:47;120.27;;;108.23;;
20443;SDS011;10381;53.730;10.010;2022-12-18T07:38:48;120.43;;;109.07;;
20443;SDS011;10381;53.730;10.010;2022-12-18T07:42:49;120.32;;;109.32;;
20443;SDS011;10381;53.730;10.010;2022-12-18T07:46:50;125.37;;;112.40;;
20443;SDS011;10381;53.730;10.010;2022-12-18T07:50:50;123.57;;;111.77;;
20443;SDS011;10381;53.730;10.010;2022-12-18T07:54:50;122.85;;;110.85;;
20443;SDS011;10381;53.730;10.010;2022-12-18T07:58:51;119.43;;;107.03;;
20443;SDS011;10381;53.730;10.010;2022-12-18T08:02:51;115.53;;;104.32;;
20443;SDS011;10381;53.730;10.010;2022-12-18T08:06:51;113.97;;;102.60;;
20443;SDS011;10381;53.730;10.010;2022-12-18T08:10:52;116.75;;;105.00;;
20443;SDS011;10381;53.730;10.010;2022-12-18T08:14:52;115.50;;;104.00;;
20443;SDS011;10381;53.730;10.010;2022-12-18T08:18:53;113.77;;;102.13;;
20443;SDS011;10381;53.730;10.010;2022-12-18T08:22:54;111.82;;;100.22;;
20443;SDS011;10381;53.730;10.010;2022-12-18T08:26:54;111.88;;;97.68;;
20443;SDS011;10381;53.730;10.010;2022-12-18T08:30:57;108.53;;;97.43;;
20443;SDS011;10381;53.730;10.010;2022-12-18T08:34:57;104.28;;;93.28;;
20443;SDS011;10381;53.730;10.010;2022-12-18T08:38:57;109.60;;;98.20;;
20443;SDS011;10381;53.730;10.010;2022-12-18T08:42:57;107.37;;;96.63;;
20443;SDS011;10381;53.730;10.010;2022-12-18T08:47:16;108.45;;;97.28;;
20443;SDS011;10381;53.730;10.010;2022-12-18T08:51:17;115.40;;;99.97;;
20443;SDS011;10381;53.730;10.010;2022-12-18T08:55:18;107.00;;;95.75;;
20443;SDS011;10381;53.730;10.010;2022-12-18T08:59:18;103.28;;;92.38;;
20443;SDS011;10381;53.730;10.010;2022-12-18T09:03:19;102.63;;;92.22;;
20443;SDS011;10381;53.730;10.010;2022-12-18T09:07:22;102.25;;;91.35;;
20443;SDS011;10381;53.730;10.010;2022-12-18T09:11:23;103.43;;;92.20;;
20443;SDS011;10381;53.730;10.010;2022-12-18T09:15:25;105.88;;;90.95;;
20443;SDS011;10381;53.730;10.010;2022-12-18T09:19:26;101.15;;;88.53;;
20443;SDS011;10381;53.730;10.010;2022-12-18T09:23:26;104.45;;;91.43;;
20443;SDS011;10381;53.730;10.010;2022-12-18T09:27:26;97.43;;;86.17;;
20443;SDS011;10381;53.730;10.010;2022-12-18T09:31:26;92.97;;;83.37;;
20443;SDS011;10381;53.730;10.010;2022-12-18T09:35:27;104.60;;;88.13;;
20443;SDS011;10381;53.730;10.010;2022-12-18T09:39:27;100.82;;;90.18;;
20443;SDS011;10381;53.730;10.010;2022-12-18T09:43:30;100.30;;;89.77;;
20443;SDS011;10381;53.730;10.010;2022-12-18T09:47:37;98.43;;;88.00;;
20443;SDS011;10381;53.730;10.010;2022-12-18T09:51:39;94.15;;;84.25;;
20443;SDS011;10381;53.730;10.010;2022-12-18T09:55:42;96.18;;;83.68;;
20443;SDS011;10381;53.730;10.010;2022-12-18T09:59:53;93.10;;;83.13;;
20443;SDS011;10381;53.730;10.010;2022-12-18T10:03:56;89.65;;;80.05;;
20443;SDS011;10381;53.730;10.010;2022-12-18T10:08:02;97.82;;;75.18;;
20443;SDS011;10381;53.730;10.010;2022-12-18T10:12:21;90.57;;;77.18;;
20443;SDS011;10381;53.730;10.010;2022-12-18T10:16:35;86.00;;;75.18;;
20443;SDS011;10381;53.730;10.010;2022-12-18T10:24:52;74.65;;;66.05;;
20443;SDS011;10381;53.730;10.010;2022-12-18T10:28:59;77.90;;;66.90;;
20443;SDS011;10381;53.730;10.010;2022-12-18T10:33:01;74.65;;;65.30;;
20443;SDS011;10381;53.730;10.010;2022-12-18T10:37:03;81.53;;;64.82;;
20443;SDS011;10381;53.730;10.010;2022-12-18T10:41:13;66.72;;;57.65;;
20443;SDS011;10381;53.730;10.010;2022-12-18T10:45:26;66.70;;;55.90;;
20443;SDS011;10381;53.730;10.010;2022-12-18T10:49:27;69.90;;;53.30;;
20443;SDS011;10381;53.730;10.010;2022-12-18T10:53:31;74.65;;;55.20;;
20443;SDS011;10381;53.730;10.010;2022-12-18T10:57:37;62.05;;;49.72;;
20443;SDS011;10381;53.730;10.010;2022-12-18T11:06:00;50.65;;;41.30;;
20443;SDS011;10381;53.730;10.010;2022-12-18T11:10:02;50.97;;;36.83;;
20443;SDS011;10381;53.730;10.010;2022-12-18T11:14:06;42.80;;;31.17;;
20443;SDS011;10381;53.730;10.010;2022-12-18T11:18:17;51.15;;;31.52;;
20443;SDS011;10381;53.730;10.010;2022-12-18T11:22:21;41.58;;;26.55;;
20443;SDS011;10381;53.730;10.010;2022-12-18T11:26:33;38.15;;;24.80;;
20443;SDS011;10381;53.730;10.010;2022-12-18T11:30:36;33.67;;;22.08;;
20443;SDS011;10381;53.730;10.010;2022-12-18T11:34:37;36.95;;;23.17;;
20443;SDS011;10381;53.730;10.010;2022-12-18T11:38:38;35.50;;;20.35;;
20443;SDS011;10381;53.730;10.010;2022-12-18T11:47:25;36.58;;;20.45;;
20443;SDS011;10381;53.730;10.010;2022-12-18T11:51:43;33.85;;;19.08;;
20443;SDS011;10381;53.730;10.010;2022-12-18T11:56:08;45.55;;;20.08;;
20443;SDS011;10381;53.730;10.010;2022-12-18T12:00:28;31.75;;;18.92;;
20443;SDS011;10381;53.730;10.010;2022-12-18T12:04:35;38.72;;;18.33;;
20443;SDS011;10381;53.730;10.010;2022-12-18T12:08:54;38.55;;;18.85;;
20443;SDS011;10381;53.730;10.010;2022-12-18T12:13:17;32.47;;;17.85;;
20443;SDS011;10381;53.730;10.010;2022-12-18T12:17:31;29.65;;;17.38;;
20443;SDS011;10381;53.730;10.010;2022-12-18T12:21:41;28.50;;;17.52;;
20443;SDS011;10381;53.730;10.010;2022-12-18T12:25:52;37.17;;;17.42;;
20443;SDS011;10381;53.730;10.010;2022-12-18T12:34:17;33.95;;;18.40;;
20443;SDS011;10381;53.730;10.010;2022-12-18T12:38:40;40.13;;;19.05;;
20443;SDS011;10381;53.730;10.010;2022-12-18T12:42:55;24.67;;;17.33;;
20443;SDS011;10381;53.730;10.010;2022-12-18T12:47:14;30.45;;;17.88;;
20443;SDS011;10381;53.730;10.010;2022-12-18T12:51:20;39.35;;;18.75;;
20443;SDS011;10381;53.730;10.010;2022-12-18T12:55:26;31.63;;;17.85;;
20443;SDS011;10381;53.730;10.010;2022-12-18T13:03:41;34.75;;;17.15;;
20443;SDS011;10381;53.730;10.010;2022-12-18T13:07:56;33.50;;;17.02;;
20443;SDS011;10381;53.730;10.010;2022-12-18T13:12:03;33.95;;;16.48;;
20443;SDS011;10381;53.730;10.010;2022-12-18T13:16:23;33.47;;;17.50;;
20443;SDS011;10381;53.730;10.010;2022-12-18T13:20:25;28.77;;;16.75;;
20443;SDS011;10381;53.730;10.010;2022-12-18T13:24:34;30.70;;;16.52;;
20443;SDS011;10381;53.730;10.010;2022-12-18T13:32:47;33.80;;;17.90;;
20443;SDS011;10381;53.730;10.010;2022-12-18T13:36:49;32.90;;;16.40;;
20443;SDS011;10381;53.730;10.010;2022-12-18T13:44:50;40.28;;;18.20;;
20443;SDS011;10381;53.730;10.010;2022-12-18T13:48:55;28.45;;;17.63;;
20443;SDS011;10381;53.730;10.010;2022-12-18T13:52:57;33.72;;;16.88;;
20443;SDS011;10381;53.730;10.010;2022-12-18T13:56:57;37.70;;;18.27;;
20443;SDS011;10381;53.730;10.010;2022-12-18T14:00:58;44.58;;;20.85;;
20443;SDS011;10381;53.730;10.010;2022-12-18T14:04:59;31.27;;;19.08;;
20443;SDS011;10381;53.730;10.010;2022-12-18T14:08:59;35.23;;;18.67;;
20443;SDS011;10381;53.730;10.010;2022-12-18T14:13:03;28.52;;;17.65;;
20443;SDS011;10381;53.730;10.010;2022-12-18T14:17:08;33.17;;;18.33;;
20443;SDS011;10381;53.730;10.010;2022-12-18T14:21:18;35.38;;;19.90;;
20443;SDS011;10381;53.730;10.010;2022-12-18T14:25:27;29.45;;;18.00;;
20443;SDS011;10381;53.730;10.010;2022-12-18T14:29:29;39.28;;;19.48;;
20443;SDS011;10381;53.730;10.010;2022-12-18T14:33:30;32.25;;;19.13;;
20443;SDS011;10381;53.730;10.010;2022-12-18T14:37:31;43.40;;;19.47;;
20443;SDS011;10381;53.730;10.010;2022-12-18T14:41:34;35.55;;;20.27;;
20443;SDS011;10381;53.730;10.010;2022-12-18T14:49:41;35.88;;;20.27;;
20443;SDS011;10381;53.730;10.010;2022-12-18T14:53:43;36.53;;;21.63;;
20443;SDS011;10381;53.730;10.010;2022-12-18T14:57:45;43.67;;;22.05;;
20443;SDS011;10381;53.730;10.010;2022-12-18T15:06:16;39.58;;;23.35;;
20443;SDS011;10381;53.730;10.010;2022-12-18T15:10:32;54.03;;;25.13;;
20443;SDS011;10381;53.730;10.010;2022-12-18T15:14:39;58.72;;;24.50;;
20443;SDS011;10381;53.730;10.010;2022-12-18T15:18:41;50.25;;;23.48;;
20443;SDS011;10381;53.730;10.010;2022-12-18T15:22:42;50.28;;;23.95;;
20443;SDS011;10381;53.730;10.010;2022-12-18T15:26:43;53.53;;;26.40;;
20443;SDS011;10381;53.730;10.010;2022-12-18T15:39:12;62.90;;;28.45;;
20443;SDS011;10381;53.730;10.010;2022-12-18T15:43:14;52.17;;;28.58;;
20443;SDS011;10381;53.730;10.010;2022-12-18T15:47:33;55.25;;;29.35;;
20443;SDS011;10381;53.730;10.010;2022-12-18T15:51:34;62.58;;;30.42;;
20443;SDS011;10381;53.730;10.010;2022-12-18T15:55:36;66.70;;;32.88;;
20443;SDS011;10381;53.730;10.010;2022-12-18T15:59:56;53.08;;;29.90;;
20443;SDS011;10381;53.730;10.010;2022-12-18T16:03:57;54.53;;;32.72;;
20443;SDS011;10381;53.730;10.010;2022-12-18T16:07:58;55.37;;;32.33;;
20443;SDS011;10381;53.730;10.010;2022-12-18T16:11:58;64.05;;;34.10;;
20443;SDS011;10381;53.730;10.010;2022-12-18T16:15:58;54.57;;;34.17;;
20443;SDS011;10381;53.730;10.010;2022-12-18T16:19:59;64.97;;;33.95;;
20443;SDS011;10381;53.730;10.010;2022-12-18T16:23:59;64.60;;;33.67;;
20443;SDS011;10381;53.730;10.010;2022-12-18T16:27:59;56.40;;;35.87;;
20443;SDS011;10381;53.730;10.010;2022-12-18T16:32:00;75.10;;;36.47;;
20443;SDS011;10381;53.730;10.010;2022-12-18T16:36:00;61.17;;;36.75;;
20443;SDS011;10381;53.730;10.010;2022-12-18T16:40:01;51.43;;;35.50;;
20443;SDS011;10381;53.730;10.010;2022-12-18T16:44:02;65.65;;;37.65;;
20443;SDS011;10381;53.730;10.010;2022-12-18T16:48:02;58.80;;;37.10;;
20443;SDS011;10381;53.730;10.010;2022-12-18T16:52:03;68.82;;;38.00;;
20443;SDS011;10381;53.730;10.010;2022-12-18T16:56:05;66.35;;;39.92;;
20443;SDS011;10381;53.730;10.010;2022-12-18T17:00:06;49.13;;;33.58;;
20443;SDS011;10381;53.730;10.010;2022-12-18T17:04:07;59.65;;;35.28;;
20443;SDS011;10381;53.730;10.010;2022-12-18T17:08:08;50.70;;;35.80;;
20443;SDS011;10381;53.730;10.010;2022-12-18T17:12:09;57.30;;;35.23;;
20443;SDS011;10381;53.730;10.010;2022-12-18T17:16:09;61.28;;;34.72;;
20443;SDS011;10381;53.730;10.010;2022-12-18T17:20:10;73.00;;;37.28;;
20443;SDS011;10381;53.730;10.010;2022-12-18T17:24:10;55.22;;;35.13;;
20443;SDS011;10381;53.730;10.010;2022-12-18T17:28:11;69.72;;;37.63;;
20443;SDS011;10381;53.730;10.010;2022-12-18T17:32:12;58.70;;;35.38;;
20443;SDS011;10381;53.730;10.010;2022-12-18T17:36:12;55.97;;;36.43;;
20443;SDS011;10381;53.730;10.010;2022-12-18T17:40:13;65.93;;;38.67;;
20443;SDS011;10381;53.730;10.010;2022-12-18T17:44:13;66.75;;;36.78;;
20443;SDS011;10381;53.730;10.010;2022-12-18T17:48:15;69.68;;;36.05;;
20443;SDS011;10381;53.730;10.010;2022-12-18T17:52:15;57.50;;;37.73;;
20443;SDS011;10381;53.730;10.010;2022-12-18T17:56:16;54.13;;;34.27;;
20443;SDS011;10381;53.730;10.010;2022-12-18T18:00:19;53.22;;;32.63;;
20443;SDS011;10381;53.730;10.010;2022-12-18T18:04:19;60.88;;;37.13;;
20443;SDS011;10381;53.730;10.010;2022-12-18T18:08:19;58.33;;;36.25;;
20443;SDS011;10381;53.730;10.010;2022-12-18T18:12:20;57.87;;;32.27;;
20443;SDS011;10381;53.730;10.010;2022-12-18T18:16:40;45.42;;;31.58;;
20443;SDS011;10381;53.730;10.010;2022-12-18T18:20:41;61.80;;;33.92;;
20443;SDS011;10381;53.730;10.010;2022-12-18T18:24:42;63.50;;;31.97;;
20443;SDS011;10381;53.730;10.010;2022-12-18T18:28:42;58.47;;;34.00;;
20443;SDS011;10381;53.730;10.010;2022-12-18T18:32:42;60.23;;;33.57;;
20443;SDS011;10381;53.730;10.010;2022-12-18T18:36:43;71.20;;;36.20;;
20443;SDS011;10381;53.730;10.010;2022-12-18T18:40:45;60.13;;;33.17;;
20443;SDS011;10381;53.730;10.010;2022-12-18T18:44:45;61.87;;;34.00;;
20443;SDS011;10381;53.730;10.010;2022-12-18T18:48:45;52.77;;;29.30;;
20443;SDS011;10381;53.730;10.010;2022-12-18T18:52:45;48.73;;;28.70;;
20443;SDS011;10381;53.730;10.010;2022-12-18T18:56:47;65.00;;;30.33;;
20443;SDS011;10381;53.730;10.010;2022-12-18T19:01:00;44.13;;;27.73;;
20443;SDS011;10381;53.730;10.010;2022-12-18T19:05:03;48.63;;;29.45;;
20443;SDS011;10381;53.730;10.010;2022-12-18T19:09:04;48.00;;;28.35;;
20443;SDS011;10381;53.730;10.010;2022-12-18T19:13:05;45.88;;;27.70;;
20443;SDS011;10381;53.730;10.010;2022-12-18T19:17:20;43.08;;;27.85;;
20443;SDS011;10381;53.730;10.010;2022-12-18T19:21:21;43.45;;;26.67;;
20443;SDS011;10381;53.730;10.010;2022-12-18T19:25:23;52.72;;;27.38;;
20443;SDS011;10381;53.730;10.010;2022-12-18T19:29:24;44.28;;;26.52;;
20443;SDS011;10381;53.730;10.010;2022-12-18T19:33:24;43.92;;;25.35;;
20443;SDS011;10381;53.730;10.010;2022-12-18T19:37:26;48.88;;;27.75;;
20443;SDS011;10381;53.730;10.010;2022-12-18T19:41:27;49.42;;;27.85;;
20443;SDS011;10381;53.730;10.010;2022-12-18T19:45:28;55.03;;;28.55;;
20443;SDS011;10381;53.730;10.010;2022-12-18T19:49:28;47.30;;;27.67;;
20443;SDS011;10381;53.730;10.010;2022-12-18T19:53:31;45.92;;;26.25;;
20443;SDS011;10381;53.730;10.010;2022-12-18T19:57:31;41.47;;;23.92;;
20443;SDS011;10381;53.730;10.010;2022-12-18T20:01:32;41.35;;;25.00;;
20443;SDS011;10381;53.730;10.010;2022-12-18T20:05:32;46.78;;;24.73;;
20443;SDS011;10381;53.730;10.010;2022-12-18T20:09:32;42.55;;;23.25;;
20443;SDS011;10381;53.730;10.010;2022-12-18T20:13:33;41.60;;;23.60;;
20443;SDS011;10381;53.730;10.010;2022-12-18T20:17:34;50.47;;;24.75;;
20443;SDS011;10381;53.730;10.010;2022-12-18T20:21:35;42.65;;;24.58;;
20443;SDS011;10381;53.730;10.010;2022-12-18T20:25:37;46.25;;;25.83;;
20443;SDS011;10381;53.730;10.010;2022-12-18T20:29:37;46.80;;;24.17;;
20443;SDS011;10381;53.730;10.010;2022-12-18T20:33:38;35.28;;;22.63;;
20443;SDS011;10381;53.730;10.010;2022-12-18T20:37:38;45.20;;;24.50;;
20443;SDS011;10381;53.730;10.010;2022-12-18T20:41:39;38.05;;;23.00;;
20443;SDS011;10381;53.730;10.010;2022-12-18T20:45:39;48.27;;;24.20;;
20443;SDS011;10381;53.730;10.010;2022-12-18T20:49:40;40.60;;;23.13;;
20443;SDS011;10381;53.730;10.010;2022-12-18T20:53:41;39.72;;;22.70;;
20443;SDS011;10381;53.730;10.010;2022-12-18T20:57:43;42.53;;;22.50;;
20443;SDS011;10381;53.730;10.010;2022-12-18T21:01:43;40.13;;;24.52;;
20443;SDS011;10381;53.730;10.010;2022-12-18T21:05:43;42.97;;;24.02;;
20443;SDS011;10381;53.730;10.010;2022-12-18T21:09:44;54.85;;;22.60;;
20443;SDS011;10381;53.730;10.010;2022-12-18T21:13:44;46.10;;;22.87;;
20443;SDS011;10381;53.730;10.010;2022-12-18T21:17:44;45.35;;;23.13;;
20443;SDS011;10381;53.730;10.010;2022-12-18T21:21:45;47.38;;;23.42;;
20443;SDS011;10381;53.730;10.010;2022-12-18T21:25:46;42.60;;;24.17;;
20443;SDS011;10381;53.730;10.010;2022-12-18T21:29:46;38.30;;;21.95;;
20443;SDS011;10381;53.730;10.010;2022-12-18T21:33:46;44.35;;;22.67;;
20443;SDS011;10381;53.730;10.010;2022-12-18T21:37:47;41.70;;;23.43;;
20443;SDS011;10381;53.730;10.010;2022-12-18T21:41:47;45.07;;;22.53;;
20443;SDS011;10381;53.730;10.010;2022-12-18T21:46:27;39.75;;;21.63;;
20443;SDS011;10381;53.730;10.010;2022-12-18T21:50:27;50.63;;;22.90;;
20443;SDS011;10381;53.730;10.010;2022-12-18T21:54:27;44.13;;;21.13;;
20443;SDS011;10381;53.730;10.010;2022-12-18T21:58:28;41.38;;;21.45;;
20443;SDS011;10381;53.730;10.010;2022-12-18T22:02:29;41.72;;;22.70;;
20443;SDS011;10381;53.730;10.010;2022-12-18T22:06:30;45.45;;;23.27;;
20443;SDS011;10381;53.730;10.010;2022-12-18T22:10:30;47.10;;;23.00;;
20443;SDS011;10381;53.730;10.010;2022-12-18T22:14:31;40.83;;;22.38;;
20443;SDS011;10381;53.730;10.010;2022-12-18T22:18:33;37.28;;;23.13;;
20443;SDS011;10381;53.730;10.010;2022-12-18T22:22:33;33.83;;;20.55;;
20443;SDS011;10381;53.730;10.010;2022-12-18T22:26:34;44.25;;;23.98;;
20443;SDS011;10381;53.730;10.010;2022-12-18T22:30:36;40.65;;;22.52;;
20443;SDS011;10381;53.730;10.010;2022-12-18T22:34:36;44.25;;;22.52;;
20443;SDS011;10381;53.730;10.010;2022-12-18T22:38:37;39.20;;;22.80;;
20443;SDS011;10381;53.730;10.010;2022-12-18T22:42:37;43.17;;;23.93;;
20443;SDS011;10381;53.730;10.010;2022-12-18T22:46:38;48.10;;;23.37;;
20443;SDS011;10381;53.730;10.010;2022-12-18T22:50:41;47.00;;;24.83;;
20443;SDS011;10381;53.730;10.010;2022-12-18T22:54:41;38.97;;;21.03;;
20443;SDS011;10381;53.730;10.010;2022-12-18T22:58:41;50.73;;;23.37;;
20443;SDS011;10381;53.730;10.010;2022-12-18T23:02:42;52.20;;;25.15;;
20443;SDS011;10381;53.730;10.010;2022-12-18T23:06:42;59.43;;;25.33;;
20443;SDS011;10381;53.730;10.010;2022-12-18T23:10:43;56.10;;;27.42;;
20443;SDS011;10381;53.730;10.010;2022-12-18T23:14:44;46.73;;;25.97;;
20443;SDS011;10381;53.730;10.010;2022-12-18T23:18:46;45.08;;;24.80;;
20443;SDS011;10381;53.730;10.010;2022-12-18T23:22:51;44.28;;;23.02;;
20443;SDS011;10381;53.730;10.010;2022-12-18T23:26:52;53.50;;;25.13;;
20443;SDS011;10381;53.730;10.010;2022-12-18T23:30:52;50.28;;;24.83;;
20443;SDS011;10381;53.730;10.010;2022-12-18T23:34:52;46.43;;;23.97;;
20443;SDS011;10381;53.730;10.010;2022-12-18T23:38:53;39.53;;;22.60;;
20443;SDS011;10381;53.730;10.010;2022-12-18T23:42:57;48.83;;;25.92;;
20443;SDS011;10381;53.730;10.010;2022-12-18T23:46:58;56.42;;;27.58;;
20443;SDS011;10381;53.730;10.010;2022-12-18T23:51:02;52.20;;;24.60;;
20443;SDS011;10381;53.730;10.010;2022-12-18T23:55:07;47.25;;;24.25;;
20443;SDS011;10381;53.730;10.010;2022-12-18T23:59:07;49.83;;;25.38;;
